sensor_id;sensor_type;location;lat;lon;timestamp;temperature;humidity
77496;SHT31;66600;48.378;9.948;2023-10-13T17:09:54;20.25;51.61
77496;SHT31;66600;48.378;9.948;2023-10-13T17:10:27;20.26;51.78
77496;SHT31;66600;48.378;9.948;2023-10-13T17:13:10;20.32;51.58
77496;SHT31;66600;48.378;9.948;2023-10-13T17:13:44;20.30;51.44
77496;SHT31;66600;48.378;9.948;2023-10-13T17:14:24;20.26;51.53
77496;SHT31;66600;48.378;9.948;2023-10-13T17:15:01;20.28;51.64
77496;SHT31;66600;48.378;9.948;2023-10-13T17:16:21;20.19;51.98
77496;SHT31;66600;48.378;9.948;2023-10-13T17:16:52;20.15;52.05
77496;SHT31;66600;48.378;9.948;2023-10-13T17:17:24;20.14;52.15
77496;SHT31;66600;48.378;9.948;2023-10-13T17:18:03;20.11;52.26
77496;SHT31;66600;48.378;9.948;2023-10-13T17:18:37;20.06;52.28
77496;SHT31;66600;48.378;9.948;2023-10-13T17:19:40;20.01;52.48
77496;SHT31;66600;48.378;9.948;2023-10-13T17:20:16;20.01;52.49
77496;SHT31;66600;48.378;9.948;2023-10-13T17:20:47;19.99;52.55
77496;SHT31;66600;48.378;9.948;2023-10-13T17:21:22;19.98;52.87
77496;SHT31;66600;48.378;9.948;2023-10-13T17:21:54;19.95;52.83
77496;SHT31;66600;48.378;9.948;2023-10-13T17:22:26;19.89;52.89
77496;SHT31;66600;48.378;9.948;2023-10-13T17:22:56;19.91;52.95
77496;SHT31;66600;48.378;9.948;2023-10-13T17:23:26;19.89;53.01
77496;SHT31;66600;48.378;9.948;2023-10-13T17:24:02;19.84;53.04
77496;SHT31;66600;48.378;9.948;2023-10-13T17:24:33;19.82;53.14
77496;SHT31;66600;48.378;9.948;2023-10-13T17:25:04;19.79;53.23
77496;SHT31;66600;48.378;9.948;2023-10-13T17:25:35;19.75;53.39
77496;SHT31;66600;48.378;9.948;2023-10-13T17:26:06;19.75;53.31
77496;SHT31;66600;48.378;9.948;2023-10-13T17:26:37;19.75;53.48
77496;SHT31;66600;48.378;9.948;2023-10-13T17:27:07;19.68;53.60
77496;SHT31;66600;48.378;9.948;2023-10-13T17:27:40;19.70;53.77
77496;SHT31;66600;48.378;9.948;2023-10-13T17:28:10;19.63;53.74
77496;SHT31;66600;48.378;9.948;2023-10-13T17:28:43;19.60;53.93
77496;SHT31;66600;48.378;9.948;2023-10-13T17:29:16;19.56;54.19
77496;SHT31;66600;48.378;9.948;2023-10-13T17:29:46;19.54;54.12
77496;SHT31;66600;48.378;9.948;2023-10-13T17:30:17;19.53;54.15
77496;SHT31;66600;48.378;9.948;2023-10-13T17:30:47;19.49;54.23
77496;SHT31;66600;48.378;9.948;2023-10-13T17:31:19;19.49;54.11
77496;SHT31;66600;48.378;9.948;2023-10-13T17:31:49;19.47;54.35
77496;SHT31;66600;48.378;9.948;2023-10-13T17:32:20;19.45;54.31
77496;SHT31;66600;48.378;9.948;2023-10-13T17:32:53;19.41;54.43
77496;SHT31;66600;48.378;9.948;2023-10-13T17:33:24;19.41;54.55
77496;SHT31;66600;48.378;9.948;2023-10-13T17:33:55;19.36;54.67
77496;SHT31;66600;48.378;9.948;2023-10-13T17:34:28;19.37;54.63
77496;SHT31;66600;48.378;9.948;2023-10-13T17:35:00;19.34;54.58
77496;SHT31;66600;48.378;9.948;2023-10-13T17:35:31;19.37;54.57
77496;SHT31;66600;48.378;9.948;2023-10-13T17:36:01;19.34;54.50
77496;SHT31;66600;48.378;9.948;2023-10-13T17:36:34;19.30;54.59
77496;SHT31;66600;48.378;9.948;2023-10-13T17:37:04;19.30;54.77
77496;SHT31;66600;48.378;9.948;2023-10-13T17:37:35;19.29;54.83
77496;SHT31;66600;48.378;9.948;2023-10-13T17:38:08;19.27;54.72
77496;SHT31;66600;48.378;9.948;2023-10-13T17:38:38;19.26;54.78
77496;SHT31;66600;48.378;9.948;2023-10-13T17:39:09;19.24;54.91
77496;SHT31;66600;48.378;9.948;2023-10-13T17:39:39;19.23;54.86
77496;SHT31;66600;48.378;9.948;2023-10-13T17:40:10;19.24;54.85
77496;SHT31;66600;48.378;9.948;2023-10-13T17:40:47;19.24;54.64
77496;SHT31;66600;48.378;9.948;2023-10-13T17:41:18;19.23;54.91
77496;SHT31;66600;48.378;9.948;2023-10-13T17:41:48;19.16;54.93
77496;SHT31;66600;48.378;9.948;2023-10-13T17:42:19;19.16;54.99
77496;SHT31;66600;48.378;9.948;2023-10-13T17:42:49;19.15;55.04
77496;SHT31;66600;48.378;9.948;2023-10-13T17:43:19;19.11;55.19
77496;SHT31;66600;48.378;9.948;2023-10-13T17:43:50;19.11;55.09
77496;SHT31;66600;48.378;9.948;2023-10-13T17:44:20;19.12;55.21
77496;SHT31;66600;48.378;9.948;2023-10-13T17:44:52;19.08;54.98
77496;SHT31;66600;48.378;9.948;2023-10-13T17:45:23;19.09;55.32
77496;SHT31;66600;48.378;9.948;2023-10-13T17:45:54;19.06;55.17
77496;SHT31;66600;48.378;9.948;2023-10-13T17:46:25;19.03;55.29
77496;SHT31;66600;48.378;9.948;2023-10-13T17:46:55;18.98;55.45
77496;SHT31;66600;48.378;9.948;2023-10-13T17:47:25;18.98;55.48
77496;SHT31;66600;48.378;9.948;2023-10-13T17:47:56;18.94;55.53
77496;SHT31;66600;48.378;9.948;2023-10-13T17:48:28;18.87;55.68
77496;SHT31;66600;48.378;9.948;2023-10-13T17:48:59;18.85;55.66
77496;SHT31;66600;48.378;9.948;2023-10-13T17:49:32;18.82;55.74
77496;SHT31;66600;48.378;9.948;2023-10-13T17:50:03;18.82;55.81
77496;SHT31;66600;48.378;9.948;2023-10-13T17:50:35;18.81;55.89
77496;SHT31;66600;48.378;9.948;2023-10-13T17:51:10;18.82;55.94
77496;SHT31;66600;48.378;9.948;2023-10-13T17:51:41;18.82;55.93
77496;SHT31;66600;48.378;9.948;2023-10-13T17:52:13;18.82;55.93
77496;SHT31;66600;48.378;9.948;2023-10-13T17:52:47;18.81;55.94
77496;SHT31;66600;48.378;9.948;2023-10-13T17:53:18;18.79;56.12
77496;SHT31;66600;48.378;9.948;2023-10-13T17:53:49;18.76;56.19
77496;SHT31;66600;48.378;9.948;2023-10-13T17:54:19;18.81;56.19
77496;SHT31;66600;48.378;9.948;2023-10-13T17:54:50;18.84;56.20
77496;SHT31;66600;48.378;9.948;2023-10-13T17:55:21;18.81;56.14
77496;SHT31;66600;48.378;9.948;2023-10-13T17:55:51;18.81;56.02
77496;SHT31;66600;48.378;9.948;2023-10-13T17:56:23;18.79;56.32
77496;SHT31;66600;48.378;9.948;2023-10-13T17:56:53;18.75;56.36
77496;SHT31;66600;48.378;9.948;2023-10-13T17:57:23;18.78;56.38
77496;SHT31;66600;48.378;9.948;2023-10-13T17:57:54;18.71;56.48
77496;SHT31;66600;48.378;9.948;2023-10-13T17:58:25;18.67;56.70
77496;SHT31;66600;48.378;9.948;2023-10-13T17:58:55;18.64;56.67
77496;SHT31;66600;48.378;9.948;2023-10-13T17:59:25;18.61;56.73
77496;SHT31;66600;48.378;9.948;2023-10-13T18:00:05;18.58;56.91
77496;SHT31;66600;48.378;9.948;2023-10-13T18:00:45;18.55;57.06
77496;SHT31;66600;48.378;9.948;2023-10-13T18:01:16;18.54;57.06
77496;SHT31;66600;48.378;9.948;2023-10-13T18:01:49;18.53;56.95
77496;SHT31;66600;48.378;9.948;2023-10-13T18:02:19;18.54;57.02
77496;SHT31;66600;48.378;9.948;2023-10-13T18:02:50;18.53;56.80
77496;SHT31;66600;48.378;9.948;2023-10-13T18:03:24;18.54;56.66
77496;SHT31;66600;48.378;9.948;2023-10-13T18:03:57;18.50;56.78
77496;SHT31;66600;48.378;9.948;2023-10-13T18:04:34;18.48;56.85
77496;SHT31;66600;48.378;9.948;2023-10-13T18:05:04;18.47;56.97
77496;SHT31;66600;48.378;9.948;2023-10-13T18:05:35;18.46;57.05
77496;SHT31;66600;48.378;9.948;2023-10-13T18:06:08;18.43;57.05
77496;SHT31;66600;48.378;9.948;2023-10-13T18:06:43;18.43;56.90
77496;SHT31;66600;48.378;9.948;2023-10-13T18:07:16;18.43;56.82
77496;SHT31;66600;48.378;9.948;2023-10-13T18:07:55;18.44;56.98
77496;SHT31;66600;48.378;9.948;2023-10-13T18:08:31;18.38;57.07
77496;SHT31;66600;48.378;9.948;2023-10-13T18:09:03;18.36;57.08
77496;SHT31;66600;48.378;9.948;2023-10-13T18:09:45;18.34;57.13
77496;SHT31;66600;48.378;9.948;2023-10-13T18:10:16;18.34;57.20
77496;SHT31;66600;48.378;9.948;2023-10-13T18:10:54;18.29;57.38
77496;SHT31;66600;48.378;9.948;2023-10-13T18:11:36;18.30;57.27
77496;SHT31;66600;48.378;9.948;2023-10-13T18:12:24;18.33;57.26
77496;SHT31;66600;48.378;9.948;2023-10-13T18:13:20;18.26;57.54
77496;SHT31;66600;48.378;9.948;2023-10-13T18:13:51;18.27;57.47
77496;SHT31;66600;48.378;9.948;2023-10-13T18:15:21;18.29;57.45
77496;SHT31;66600;48.378;9.948;2023-10-13T18:17:36;18.23;57.48
77496;SHT31;66600;48.378;9.948;2023-10-13T18:19:21;18.23;57.41
77496;SHT31;66600;48.378;9.948;2023-10-13T18:20:10;18.23;57.55
77496;SHT31;66600;48.378;9.948;2023-10-13T18:21:06;18.25;57.49
77496;SHT31;66600;48.378;9.948;2023-10-13T18:23:08;18.27;57.39
77496;SHT31;66600;48.378;9.948;2023-10-13T18:23:42;18.30;57.31
77496;SHT31;66600;48.378;9.948;2023-10-13T18:24:33;18.27;57.36
77496;SHT31;66600;48.378;9.948;2023-10-13T18:25:10;18.30;57.33
77496;SHT31;66600;48.378;9.948;2023-10-13T18:25:54;18.33;57.33
77496;SHT31;66600;48.378;9.948;2023-10-13T18:26:25;18.29;57.28
77496;SHT31;66600;48.378;9.948;2023-10-13T18:26:58;18.32;57.30
77496;SHT31;66600;48.378;9.948;2023-10-13T18:27:46;18.33;57.17
77496;SHT31;66600;48.378;9.948;2023-10-13T18:28:58;18.33;57.27
77496;SHT31;66600;48.378;9.948;2023-10-13T18:29:31;18.29;57.30
77496;SHT31;66600;48.378;9.948;2023-10-13T18:30:02;18.27;57.28
77496;SHT31;66600;48.378;9.948;2023-10-13T18:30:45;18.27;57.58
77496;SHT31;66600;48.378;9.948;2023-10-13T18:31:16;18.25;57.47
77496;SHT31;66600;48.378;9.948;2023-10-13T18:31:48;18.23;57.54
77496;SHT31;66600;48.378;9.948;2023-10-13T18:32:18;18.16;57.82
77496;SHT31;66600;48.378;9.948;2023-10-13T18:33:33;18.08;57.98
77496;SHT31;66600;48.378;9.948;2023-10-13T18:34:03;18.03;58.00
77496;SHT31;66600;48.378;9.948;2023-10-13T18:35:02;18.00;58.25
77496;SHT31;66600;48.378;9.948;2023-10-13T18:35:33;17.96;58.34
77496;SHT31;66600;48.378;9.948;2023-10-13T18:36:19;17.95;58.76
77496;SHT31;66600;48.378;9.948;2023-10-13T18:37:41;17.85;59.13
77496;SHT31;66600;48.378;9.948;2023-10-13T18:39:03;17.75;59.18
77496;SHT31;66600;48.378;9.948;2023-10-13T18:39:48;17.77;59.11
77496;SHT31;66600;48.378;9.948;2023-10-13T18:40:19;17.72;59.37
77496;SHT31;66600;48.378;9.948;2023-10-13T18:40:57;17.71;59.36
77496;SHT31;66600;48.378;9.948;2023-10-13T18:41:38;17.65;59.35
77496;SHT31;66600;48.378;9.948;2023-10-13T18:42:18;17.65;59.29
77496;SHT31;66600;48.378;9.948;2023-10-13T18:42:58;17.61;59.62
77496;SHT31;66600;48.378;9.948;2023-10-13T18:43:32;17.62;59.55
77496;SHT31;66600;48.378;9.948;2023-10-13T18:44:20;17.57;59.52
77496;SHT31;66600;48.378;9.948;2023-10-13T18:44:56;17.55;59.60
77496;SHT31;66600;48.378;9.948;2023-10-13T18:46:11;17.51;59.87
77496;SHT31;66600;48.378;9.948;2023-10-13T18:48:41;17.45;59.98
77496;SHT31;66600;48.378;9.948;2023-10-13T18:49:30;17.38;60.04
77496;SHT31;66600;48.378;9.948;2023-10-13T18:50:06;17.37;60.20
77496;SHT31;66600;48.378;9.948;2023-10-13T18:50:40;17.33;60.18
77496;SHT31;66600;48.378;9.948;2023-10-13T18:51:16;17.31;60.33
77496;SHT31;66600;48.378;9.948;2023-10-13T18:51:47;17.30;60.26
77496;SHT31;66600;48.378;9.948;2023-10-13T18:52:17;17.28;60.33
77496;SHT31;66600;48.378;9.948;2023-10-13T18:52:50;17.26;60.57
77496;SHT31;66600;48.378;9.948;2023-10-13T18:53:21;17.22;60.68
77496;SHT31;66600;48.378;9.948;2023-10-13T18:53:52;17.22;60.80
77496;SHT31;66600;48.378;9.948;2023-10-13T18:54:26;17.17;60.99
77496;SHT31;66600;48.378;9.948;2023-10-13T18:54:57;17.16;61.00
77496;SHT31;66600;48.378;9.948;2023-10-13T18:56:02;17.14;60.99
77496;SHT31;66600;48.378;9.948;2023-10-13T18:56:43;17.16;60.94
77496;SHT31;66600;48.378;9.948;2023-10-13T18:57:14;17.19;60.86
77496;SHT31;66600;48.378;9.948;2023-10-13T18:57:44;17.20;60.83
77496;SHT31;66600;48.378;9.948;2023-10-13T18:58:17;17.14;60.96
77496;SHT31;66600;48.378;9.948;2023-10-13T18:58:57;17.17;60.98
77496;SHT31;66600;48.378;9.948;2023-10-13T18:59:32;17.20;60.89
77496;SHT31;66600;48.378;9.948;2023-10-13T19:00:15;17.20;60.87
77496;SHT31;66600;48.378;9.948;2023-10-13T19:00:57;17.22;60.93
77496;SHT31;66600;48.378;9.948;2023-10-13T19:01:46;17.14;60.98
77496;SHT31;66600;48.378;9.948;2023-10-13T19:02:17;17.14;61.15
77496;SHT31;66600;48.378;9.948;2023-10-13T19:02:55;17.16;61.03
77496;SHT31;66600;48.378;9.948;2023-10-13T19:03:25;17.16;60.86
77496;SHT31;66600;48.378;9.948;2023-10-13T19:04:02;17.19;60.85
77496;SHT31;66600;48.378;9.948;2023-10-13T19:04:42;17.17;60.85
77496;SHT31;66600;48.378;9.948;2023-10-13T19:05:13;17.16;60.91
77496;SHT31;66600;48.378;9.948;2023-10-13T19:05:43;17.12;61.08
77496;SHT31;66600;48.378;9.948;2023-10-13T19:06:17;17.13;61.04
77496;SHT31;66600;48.378;9.948;2023-10-13T19:06:48;17.14;61.17
77496;SHT31;66600;48.378;9.948;2023-10-13T19:07:18;17.17;61.03
77496;SHT31;66600;48.378;9.948;2023-10-13T19:07:49;17.16;61.12
77496;SHT31;66600;48.378;9.948;2023-10-13T19:08:38;17.17;61.03
77496;SHT31;66600;48.378;9.948;2023-10-13T19:09:11;17.14;61.06
77496;SHT31;66600;48.378;9.948;2023-10-13T19:09:42;17.13;61.00
77496;SHT31;66600;48.378;9.948;2023-10-13T19:10:19;17.10;61.15
77496;SHT31;66600;48.378;9.948;2023-10-13T19:10:50;17.10;61.23
77496;SHT31;66600;48.378;9.948;2023-10-13T19:11:43;17.06;61.18
77496;SHT31;66600;48.378;9.948;2023-10-13T19:12:15;17.05;61.14
77496;SHT31;66600;48.378;9.948;2023-10-13T19:13:09;17.05;61.20
77496;SHT31;66600;48.378;9.948;2023-10-13T19:13:51;17.06;61.23
77496;SHT31;66600;48.378;9.948;2023-10-13T19:14:22;17.00;61.33
77496;SHT31;66600;48.378;9.948;2023-10-13T19:15:17;16.99;61.32
77496;SHT31;66600;48.378;9.948;2023-10-13T19:16:09;17.00;61.30
77496;SHT31;66600;48.378;9.948;2023-10-13T19:16:48;17.02;61.28
77496;SHT31;66600;48.378;9.948;2023-10-13T19:18:06;17.00;61.41
77496;SHT31;66600;48.378;9.948;2023-10-13T19:18:51;16.97;61.36
77496;SHT31;66600;48.378;9.948;2023-10-13T19:19:24;17.02;61.39
77496;SHT31;66600;48.378;9.948;2023-10-13T19:19:55;17.00;61.21
77496;SHT31;66600;48.378;9.948;2023-10-13T19:20:46;17.03;61.10
77496;SHT31;66600;48.378;9.948;2023-10-13T19:21:46;17.06;61.08
77496;SHT31;66600;48.378;9.948;2023-10-13T19:22:25;17.03;61.02
77496;SHT31;66600;48.378;9.948;2023-10-13T19:23:09;17.06;60.83
77496;SHT31;66600;48.378;9.948;2023-10-13T19:25:41;17.00;60.93
77496;SHT31;66600;48.378;9.948;2023-10-13T19:27:21;16.95;60.94
77496;SHT31;66600;48.378;9.948;2023-10-13T19:28:26;16.93;61.09
77496;SHT31;66600;48.378;9.948;2023-10-13T19:29:40;16.89;60.97
77496;SHT31;66600;48.378;9.948;2023-10-13T19:30:27;16.90;61.05
77496;SHT31;66600;48.378;9.948;2023-10-13T19:31:07;16.87;61.16
77496;SHT31;66600;48.378;9.948;2023-10-13T19:31:38;16.83;60.95
77496;SHT31;66600;48.378;9.948;2023-10-13T19:32:11;16.87;60.98
77496;SHT31;66600;48.378;9.948;2023-10-13T19:32:42;16.86;61.08
77496;SHT31;66600;48.378;9.948;2023-10-13T19:35:25;16.76;61.26
77496;SHT31;66600;48.378;9.948;2023-10-13T19:36:43;16.78;61.26
77496;SHT31;66600;48.378;9.948;2023-10-13T19:37:26;16.73;61.35
77496;SHT31;66600;48.378;9.948;2023-10-13T19:40:33;16.57;61.83
77496;SHT31;66600;48.378;9.948;2023-10-13T19:41:45;16.51;61.97
77496;SHT31;66600;48.378;9.948;2023-10-13T19:42:16;16.51;62.07
77496;SHT31;66600;48.378;9.948;2023-10-13T19:42:51;16.48;62.15
77496;SHT31;66600;48.378;9.948;2023-10-13T19:43:28;16.42;62.26
77496;SHT31;66600;48.378;9.948;2023-10-13T19:44:43;16.40;62.23
77496;SHT31;66600;48.378;9.948;2023-10-13T19:48:20;16.32;62.22
77496;SHT31;66600;48.378;9.948;2023-10-13T19:51:05;16.22;62.35
77496;SHT31;66600;48.378;9.948;2023-10-13T19:51:50;16.20;62.27
77496;SHT31;66600;48.378;9.948;2023-10-13T19:53:19;16.17;62.22
77496;SHT31;66600;48.378;9.948;2023-10-13T19:53:50;16.17;62.27
77496;SHT31;66600;48.378;9.948;2023-10-13T19:54:21;16.14;62.33
77496;SHT31;66600;48.378;9.948;2023-10-13T19:54:52;16.14;62.14
77496;SHT31;66600;48.378;9.948;2023-10-13T19:55:26;16.14;61.82
77496;SHT31;66600;48.378;9.948;2023-10-13T19:56:16;16.16;61.84
77496;SHT31;66600;48.378;9.948;2023-10-13T19:56:50;16.14;61.56
77496;SHT31;66600;48.378;9.948;2023-10-13T19:57:22;16.20;61.43
77496;SHT31;66600;48.378;9.948;2023-10-13T19:57:52;16.14;61.63
77496;SHT31;66600;48.378;9.948;2023-10-13T19:58:23;16.17;61.46
77496;SHT31;66600;48.378;9.948;2023-10-13T19:58:56;16.14;61.66
77496;SHT31;66600;48.378;9.948;2023-10-13T19:59:27;16.13;61.77
77496;SHT31;66600;48.378;9.948;2023-10-13T19:59:58;16.13;61.72
77496;SHT31;66600;48.378;9.948;2023-10-13T20:00:30;16.09;61.86
77496;SHT31;66600;48.378;9.948;2023-10-13T20:01:10;16.09;62.10
77496;SHT31;66600;48.378;9.948;2023-10-13T20:01:41;16.07;62.06
77496;SHT31;66600;48.378;9.948;2023-10-13T20:02:13;16.06;62.06
77496;SHT31;66600;48.378;9.948;2023-10-13T20:02:43;16.03;62.12
77496;SHT31;66600;48.378;9.948;2023-10-13T20:03:26;15.99;62.04
77496;SHT31;66600;48.378;9.948;2023-10-13T20:03:59;15.99;62.26
77496;SHT31;66600;48.378;9.948;2023-10-13T20:04:30;15.96;62.24
77496;SHT31;66600;48.378;9.948;2023-10-13T20:05:02;15.92;62.26
77496;SHT31;66600;48.378;9.948;2023-10-13T20:05:41;15.89;62.43
77496;SHT31;66600;48.378;9.948;2023-10-13T20:06:13;15.85;62.49
77496;SHT31;66600;48.378;9.948;2023-10-13T20:06:54;15.79;62.28
77496;SHT31;66600;48.378;9.948;2023-10-13T20:07:28;15.76;62.56
77496;SHT31;66600;48.378;9.948;2023-10-13T20:07:58;15.76;62.44
77496;SHT31;66600;48.378;9.948;2023-10-13T20:08:29;15.75;62.35
77496;SHT31;66600;48.378;9.948;2023-10-13T20:08:59;15.70;62.56
77496;SHT31;66600;48.378;9.948;2023-10-13T20:09:38;15.73;62.26
77496;SHT31;66600;48.378;9.948;2023-10-13T20:10:12;15.69;62.42
77496;SHT31;66600;48.378;9.948;2023-10-13T20:10:42;15.69;62.54
77496;SHT31;66600;48.378;9.948;2023-10-13T20:11:13;15.69;62.64
77496;SHT31;66600;48.378;9.948;2023-10-13T20:11:45;15.65;62.67
77496;SHT31;66600;48.378;9.948;2023-10-13T20:12:16;15.63;62.64
77496;SHT31;66600;48.378;9.948;2023-10-13T20:12:49;15.62;62.45
77496;SHT31;66600;48.378;9.948;2023-10-13T20:13:20;15.61;62.65
77496;SHT31;66600;48.378;9.948;2023-10-13T20:13:51;15.61;62.68
77496;SHT31;66600;48.378;9.948;2023-10-13T20:14:22;15.62;62.75
77496;SHT31;66600;48.378;9.948;2023-10-13T20:14:52;15.62;62.62
77496;SHT31;66600;48.378;9.948;2023-10-13T20:15:24;15.61;62.44
77496;SHT31;66600;48.378;9.948;2023-10-13T20:15:55;15.63;62.51
77496;SHT31;66600;48.378;9.948;2023-10-13T20:16:25;15.65;62.39
77496;SHT31;66600;48.378;9.948;2023-10-13T20:16:56;15.67;62.18
77496;SHT31;66600;48.378;9.948;2023-10-13T20:17:26;15.65;62.38
77496;SHT31;66600;48.378;9.948;2023-10-13T20:17:59;15.66;62.33
77496;SHT31;66600;48.378;9.948;2023-10-13T20:18:30;15.63;62.28
77496;SHT31;66600;48.378;9.948;2023-10-13T20:19:01;15.65;62.19
77496;SHT31;66600;48.378;9.948;2023-10-13T20:19:31;15.65;62.12
77496;SHT31;66600;48.378;9.948;2023-10-13T20:20:02;15.65;61.98
77496;SHT31;66600;48.378;9.948;2023-10-13T20:20:36;15.69;61.90
77496;SHT31;66600;48.378;9.948;2023-10-13T20:21:09;15.69;61.74
77496;SHT31;66600;48.378;9.948;2023-10-13T20:21:40;15.72;61.57
77496;SHT31;66600;48.378;9.948;2023-10-13T20:22:10;15.73;61.58
77496;SHT31;66600;48.378;9.948;2023-10-13T20:22:40;15.66;61.66
77496;SHT31;66600;48.378;9.948;2023-10-13T20:23:11;15.66;61.57
77496;SHT31;66600;48.378;9.948;2023-10-13T20:23:43;15.66;61.44
77496;SHT31;66600;48.378;9.948;2023-10-13T20:24:13;15.66;61.52
77496;SHT31;66600;48.378;9.948;2023-10-13T20:24:44;15.67;61.54
77496;SHT31;66600;48.378;9.948;2023-10-13T20:25:15;15.65;61.49
77496;SHT31;66600;48.378;9.948;2023-10-13T20:25:45;15.63;61.57
77496;SHT31;66600;48.378;9.948;2023-10-13T20:26:21;15.63;61.44
77496;SHT31;66600;48.378;9.948;2023-10-13T20:26:52;15.63;61.42
77496;SHT31;66600;48.378;9.948;2023-10-13T20:27:22;15.61;61.54
77496;SHT31;66600;48.378;9.948;2023-10-13T20:27:52;15.56;61.53
77496;SHT31;66600;48.378;9.948;2023-10-13T20:28:23;15.54;61.57
77496;SHT31;66600;48.378;9.948;2023-10-13T20:28:57;15.51;61.72
77496;SHT31;66600;48.378;9.948;2023-10-13T20:29:27;15.51;61.68
77496;SHT31;66600;48.378;9.948;2023-10-13T20:29:58;15.49;61.63
77496;SHT31;66600;48.378;9.948;2023-10-13T20:30:28;15.51;61.68
77496;SHT31;66600;48.378;9.948;2023-10-13T20:31:01;15.51;61.67
77496;SHT31;66600;48.378;9.948;2023-10-13T20:31:35;15.52;61.66
77496;SHT31;66600;48.378;9.948;2023-10-13T20:32:08;15.52;61.73
77496;SHT31;66600;48.378;9.948;2023-10-13T20:32:40;15.51;61.79
77496;SHT31;66600;48.378;9.948;2023-10-13T20:33:12;15.48;61.88
77496;SHT31;66600;48.378;9.948;2023-10-13T20:33:42;15.49;61.83
77496;SHT31;66600;48.378;9.948;2023-10-13T20:34:16;15.42;61.96
77496;SHT31;66600;48.378;9.948;2023-10-13T20:34:49;15.42;61.91
77496;SHT31;66600;48.378;9.948;2023-10-13T20:35:19;15.39;62.10
77496;SHT31;66600;48.378;9.948;2023-10-13T20:35:53;15.38;62.15
77496;SHT31;66600;48.378;9.948;2023-10-13T20:36:24;15.34;62.17
77496;SHT31;66600;48.378;9.948;2023-10-13T20:36:54;15.37;62.23
77496;SHT31;66600;48.378;9.948;2023-10-13T20:37:25;15.34;62.28
77496;SHT31;66600;48.378;9.948;2023-10-13T20:37:55;15.32;62.32
77496;SHT31;66600;48.378;9.948;2023-10-13T20:38:25;15.31;62.44
77496;SHT31;66600;48.378;9.948;2023-10-13T20:38:58;15.31;62.62
77496;SHT31;66600;48.378;9.948;2023-10-13T20:39:31;15.27;62.77
77496;SHT31;66600;48.378;9.948;2023-10-13T20:40:02;15.24;63.11
77496;SHT31;66600;48.378;9.948;2023-10-13T20:41:02;15.21;63.08
77496;SHT31;66600;48.378;9.948;2023-10-13T20:41:38;15.10;63.33
77496;SHT31;66600;48.378;9.948;2023-10-13T20:42:09;15.10;63.30
77496;SHT31;66600;48.378;9.948;2023-10-13T20:42:40;15.11;63.43
77496;SHT31;66600;48.378;9.948;2023-10-13T20:43:11;15.11;63.46
77496;SHT31;66600;48.378;9.948;2023-10-13T20:43:42;15.07;63.67
77496;SHT31;66600;48.378;9.948;2023-10-13T20:44:13;15.01;63.63
77496;SHT31;66600;48.378;9.948;2023-10-13T20:44:44;15.00;63.75
77496;SHT31;66600;48.378;9.948;2023-10-13T20:45:18;14.96;63.88
77496;SHT31;66600;48.378;9.948;2023-10-13T20:45:52;14.96;63.93
77496;SHT31;66600;48.378;9.948;2023-10-13T20:46:22;14.93;64.00
77496;SHT31;66600;48.378;9.948;2023-10-13T20:46:53;14.91;64.00
77496;SHT31;66600;48.378;9.948;2023-10-13T20:47:26;14.94;63.95
77496;SHT31;66600;48.378;9.948;2023-10-13T20:47:57;14.93;63.91
77496;SHT31;66600;48.378;9.948;2023-10-13T20:48:29;14.89;63.97
77496;SHT31;66600;48.378;9.948;2023-10-13T20:49:02;14.87;64.05
77496;SHT31;66600;48.378;9.948;2023-10-13T20:49:35;14.83;64.11
77496;SHT31;66600;48.378;9.948;2023-10-13T20:50:05;14.84;64.00
77496;SHT31;66600;48.378;9.948;2023-10-13T20:50:38;14.83;63.98
77496;SHT31;66600;48.378;9.948;2023-10-13T20:51:08;14.81;64.04
77496;SHT31;66600;48.378;9.948;2023-10-13T20:51:43;14.83;63.86
77496;SHT31;66600;48.378;9.948;2023-10-13T20:52:14;14.83;63.89
77496;SHT31;66600;48.378;9.948;2023-10-13T20:52:45;14.87;63.73
77496;SHT31;66600;48.378;9.948;2023-10-13T20:53:15;14.87;63.61
77496;SHT31;66600;48.378;9.948;2023-10-13T20:53:46;14.87;63.54
77496;SHT31;66600;48.378;9.948;2023-10-13T20:54:19;14.89;63.58
77496;SHT31;66600;48.378;9.948;2023-10-13T20:54:50;14.87;63.53
77496;SHT31;66600;48.378;9.948;2023-10-13T20:55:22;14.86;63.58
77496;SHT31;66600;48.378;9.948;2023-10-13T20:56:06;14.86;63.58
77496;SHT31;66600;48.378;9.948;2023-10-13T20:56:38;14.86;63.37
77496;SHT31;66600;48.378;9.948;2023-10-13T20:57:11;14.87;63.32
77496;SHT31;66600;48.378;9.948;2023-10-13T20:57:43;14.90;63.21
77496;SHT31;66600;48.378;9.948;2023-10-13T20:58:14;14.89;63.21
77496;SHT31;66600;48.378;9.948;2023-10-13T20:58:45;14.93;62.93
77496;SHT31;66600;48.378;9.948;2023-10-13T20:59:26;14.97;62.75
77496;SHT31;66600;48.378;9.948;2023-10-13T20:59:56;14.96;63.02
77496;SHT31;66600;48.378;9.948;2023-10-13T21:00:28;14.97;62.82
77496;SHT31;66600;48.378;9.948;2023-10-13T21:01:10;15.01;62.59
77496;SHT31;66600;48.378;9.948;2023-10-13T21:01:42;15.03;62.62
77496;SHT31;66600;48.378;9.948;2023-10-13T21:02:12;15.01;62.57
77496;SHT31;66600;48.378;9.948;2023-10-13T21:02:44;15.00;62.72
77496;SHT31;66600;48.378;9.948;2023-10-13T21:03:14;15.00;62.61
77496;SHT31;66600;48.378;9.948;2023-10-13T21:03:47;14.99;62.66
77496;SHT31;66600;48.378;9.948;2023-10-13T21:04:18;15.00;62.57
77496;SHT31;66600;48.378;9.948;2023-10-13T21:04:49;15.01;62.54
77496;SHT31;66600;48.378;9.948;2023-10-13T21:05:20;15.00;62.68
77496;SHT31;66600;48.378;9.948;2023-10-13T21:05:53;14.96;62.75
77496;SHT31;66600;48.378;9.948;2023-10-13T21:06:24;14.96;62.75
77496;SHT31;66600;48.378;9.948;2023-10-13T21:06:54;14.96;62.76
77496;SHT31;66600;48.378;9.948;2023-10-13T21:07:25;14.96;62.90
77496;SHT31;66600;48.378;9.948;2023-10-13T21:07:57;14.93;62.95
77496;SHT31;66600;48.378;9.948;2023-10-13T21:08:30;14.93;62.88
77496;SHT31;66600;48.378;9.948;2023-10-13T21:09:01;14.91;62.96
77496;SHT31;66600;48.378;9.948;2023-10-13T21:09:31;14.90;62.99
77496;SHT31;66600;48.378;9.948;2023-10-13T21:10:07;14.89;63.11
77496;SHT31;66600;48.378;9.948;2023-10-13T21:10:43;14.89;63.00
77496;SHT31;66600;48.378;9.948;2023-10-13T21:11:16;14.89;62.86
77496;SHT31;66600;48.378;9.948;2023-10-13T21:11:46;14.86;62.78
77496;SHT31;66600;48.378;9.948;2023-10-13T21:12:17;14.87;62.78
77496;SHT31;66600;48.378;9.948;2023-10-13T21:12:49;14.84;62.58
77496;SHT31;66600;48.378;9.948;2023-10-13T21:13:19;14.84;62.53
77496;SHT31;66600;48.378;9.948;2023-10-13T21:13:50;14.84;62.40
77496;SHT31;66600;48.378;9.948;2023-10-13T21:14:24;14.87;62.29
77496;SHT31;66600;48.378;9.948;2023-10-13T21:14:54;14.89;62.29
77496;SHT31;66600;48.378;9.948;2023-10-13T21:15:29;14.84;62.29
77496;SHT31;66600;48.378;9.948;2023-10-13T21:16:00;14.84;62.18
77496;SHT31;66600;48.378;9.948;2023-10-13T21:16:30;14.81;62.33